Greeneville Municipal (3B1)
Greeneville, ME
Field Elevation: 1401
Lat: 45°27.80N  Long: 69°33.10W
CTAF/Unicom Freq: 122.8000
   
     For Weather-by-Phone, call (207) 695-2581
Weather Advisories
2018-04-24   18:14 Z
Altimeter 30.19" Hg
Wind 260° @ 9 KT
Gusts 17 KT
Visibility 10 SM
Ceiling CLR
Temperature 19° C (66° F)
Dewpoint -7° C (19° F)
Relative Humidity 17%
Density Altitude --
Condensation Altitude 14,200 feet
Wind and Runways
Indicated Runway = 21
Headwind = 6 kt
Crosswind = 7 kt
History
 
 
 
More Info
NOAA Forecast
 
 
About Us
Belfort Instrument
 
 
FAA Disclaimer: The data displayed is for advisory purposes only and is not to be used for flight planning or operations. For official data, please call (207) 695-2581 to hear the current automated AWOS voice message.
  METAR 3B1 241814Z AUTO 26009G17KT 10 SM CLR 19/M07 A3019